createdAt,value
2023-05-03T00:02:14.972Z,101082.56
2023-05-03T00:04:42.396Z,101061.75
2023-05-03T00:07:10.089Z,101080.88
2023-05-03T00:09:37.379Z,101082.81
2023-05-03T00:12:06.020Z,101083.34
2023-05-03T00:14:33.412Z,101085.25
2023-05-03T00:17:00.821Z,101072.84
2023-05-03T00:19:31.813Z,101073.78
2023-05-03T00:22:00.294Z,101078.44
2023-05-03T00:24:27.735Z,101079.22
2023-05-03T00:26:55.090Z,101071.03
2023-05-03T00:29:23.018Z,101072.19
2023-05-03T00:31:50.495Z,101060.31
2023-05-03T00:34:17.942Z,101063.28
2023-05-03T00:36:45.368Z,101081.13
2023-05-03T00:39:12.755Z,101088.16
2023-05-03T00:41:40.568Z,101078.59
2023-05-03T00:44:08.232Z,101063.56
2023-05-03T00:46:35.706Z,101078.63
2023-05-03T00:49:03.202Z,101073.91
2023-05-03T00:51:30.665Z,101079.53
2023-05-03T00:53:58.136Z,101064.00
2023-05-03T00:56:26.472Z,101078.63
2023-05-03T00:58:54.305Z,101101.09
2023-05-03T01:01:22.194Z,101067.31
2023-05-03T01:03:50.744Z,101059.47
2023-05-03T01:06:32.360Z,101070.84
2023-05-03T01:09:03.114Z,101078.50
2023-05-03T01:11:42.145Z,101073.16
2023-05-03T01:14:20.246Z,101086.03
2023-05-03T01:16:51.816Z,101064.75
2023-05-03T01:19:32.350Z,101080.44
2023-05-03T01:22:11.260Z,101077.09
2023-05-03T01:24:41.881Z,101076.97
2023-05-03T01:27:09.479Z,101087.66
2023-05-03T01:29:36.969Z,101083.00
2023-05-03T01:32:09.332Z,101086.72
2023-05-03T01:34:42.760Z,101067.63
2023-05-03T01:37:12.822Z,101074.13
2023-05-03T01:40:01.400Z,101071.34
2023-05-03T01:42:30.785Z,101075.09
2023-05-03T01:44:59.647Z,101084.81
2023-05-03T01:47:28.106Z,101064.09
2023-05-03T01:49:55.843Z,101074.78
2023-05-03T01:52:23.506Z,101080.25
2023-05-03T01:54:51.017Z,101073.09
2023-05-03T01:57:19.297Z,101074.97
2023-05-03T01:59:46.680Z,101078.81
2023-05-03T02:02:14.030Z,101081.94
2023-05-03T02:04:41.710Z,101083.00
2023-05-03T02:07:09.438Z,101063.00
2023-05-03T02:09:36.850Z,101087.66
2023-05-03T02:12:04.394Z,101089.78
2023-05-03T02:14:33.118Z,101090.47
2023-05-03T02:17:00.808Z,101081.06
2023-05-03T02:19:28.314Z,101089.00
2023-05-03T02:21:56.807Z,101078.63
2023-05-03T02:24:24.331Z,101092.16
2023-05-03T02:26:51.905Z,101083.25
2023-05-03T02:29:19.245Z,101095.53
2023-05-03T02:31:47.018Z,101091.31
2023-05-03T02:34:14.478Z,101102.09
2023-05-03T02:36:41.972Z,101088.03
2023-05-03T02:39:09.989Z,101081.81
2023-05-03T02:41:37.373Z,101097.69
2023-05-03T02:44:05.154Z,101095.25
2023-05-03T02:46:32.807Z,101101.97
2023-05-03T02:49:00.381Z,101089.88
2023-05-03T02:51:27.746Z,101103.41
2023-05-03T02:53:55.221Z,101083.09
2023-05-03T02:56:22.740Z,101087.72
2023-05-03T02:58:50.153Z,101100.47
2023-05-03T03:01:17.596Z,101102.41
2023-05-03T03:03:45.519Z,101104.28
2023-05-03T03:06:13.000Z,101100.59
2023-05-03T03:08:40.371Z,101100.00
2023-05-03T03:11:08.981Z,101099.75
2023-05-03T03:13:39.693Z,101097.94
2023-05-03T03:16:08.291Z,101101.84
2023-05-03T03:18:37.019Z,101101.03
2023-05-03T03:21:04.696Z,101116.00
2023-05-03T03:23:33.486Z,101095.88
2023-05-03T03:26:01.334Z,101103.78
2023-05-03T03:28:28.791Z,101122.38
2023-05-03T03:30:59.420Z,101099.75
2023-05-03T03:33:26.820Z,101103.94
2023-05-03T03:35:59.714Z,101101.34
2023-05-03T03:38:31.676Z,101125.22
2023-05-03T03:41:03.878Z,101106.84
2023-05-03T03:43:31.298Z,101130.75
2023-05-03T03:45:59.975Z,101121.81
2023-05-03T03:48:27.402Z,101130.69
2023-05-03T03:50:54.943Z,101131.72
2023-05-03T03:53:26.968Z,101133.31
2023-05-03T03:55:54.559Z,101127.91
2023-05-03T03:58:21.935Z,101133.00
2023-05-03T04:00:49.685Z,101119.13
2023-05-03T04:03:20.421Z,101127.31
2023-05-03T04:05:50.691Z,101135.06
2023-05-03T04:08:20.395Z,101137.53
2023-05-03T04:10:47.977Z,101130.63
2023-05-03T04:13:15.379Z,101116.63
2023-05-03T04:15:42.752Z,101154.53
2023-05-03T04:18:10.173Z,101139.47
2023-05-03T04:20:39.951Z,101142.53
2023-05-03T04:23:09.356Z,101126.16
2023-05-03T04:25:37.167Z,101128.78
2023-05-03T04:28:11.749Z,101139.16
2023-05-03T04:30:44.582Z,101141.09
2023-05-03T04:33:13.927Z,101157.28
2023-05-03T04:35:42.141Z,101166.22
2023-05-03T04:38:13.303Z,101161.50
2023-05-03T04:40:41.284Z,101171.13
2023-05-03T04:43:11.157Z,101177.50
2023-05-03T04:45:42.300Z,101150.94
2023-05-03T04:48:13.953Z,101170.50
2023-05-03T04:50:41.533Z,101178.59
2023-05-03T04:53:10.884Z,101181.22
2023-05-03T04:55:42.285Z,101164.53
2023-05-03T04:58:10.518Z,101179.47
2023-05-03T05:00:40.012Z,101165.59
2023-05-03T05:03:13.228Z,101198.13
2023-05-03T05:05:40.804Z,101182.97
2023-05-03T05:08:10.541Z,101186.50
2023-05-03T05:10:43.642Z,101186.56
2023-05-03T05:13:15.632Z,101183.03
2023-05-03T05:15:43.551Z,101188.38
2023-05-03T05:18:12.826Z,101186.56
2023-05-03T05:20:41.160Z,101190.19
2023-05-03T05:23:08.999Z,101194.47
2023-05-03T05:25:36.965Z,101192.41
2023-05-03T05:28:05.140Z,101198.03
2023-05-03T05:30:33.606Z,101190.72
2023-05-03T05:33:03.332Z,101189.81
2023-05-03T05:35:33.423Z,101196.06
2023-05-03T05:38:00.795Z,101194.09
2023-05-03T05:40:29.583Z,101197.63
2023-05-03T05:42:58.687Z,101193.09
2023-05-03T05:45:27.793Z,101200.09
2023-05-03T05:47:57.157Z,101201.72
2023-05-03T05:50:24.566Z,101199.84
2023-05-03T05:52:57.467Z,101203.16
2023-05-03T05:55:28.263Z,101191.75
2023-05-03T05:57:56.911Z,101202.31
2023-05-03T06:00:30.288Z,101196.94
2023-05-03T06:02:57.775Z,101204.97
2023-05-03T06:05:25.515Z,101203.97
2023-05-03T06:07:54.297Z,101208.34
2023-05-03T06:10:21.662Z,101209.09
2023-05-03T06:12:53.122Z,101206.34
2023-05-03T06:15:24.443Z,101210.53
2023-05-03T06:17:52.073Z,101202.53
2023-05-03T06:20:19.570Z,101206.97
2023-05-03T06:22:48.846Z,101204.25
2023-05-03T06:25:18.185Z,101201.91
2023-05-03T06:27:48.874Z,101201.88
2023-05-03T06:30:18.209Z,101201.97
2023-05-03T06:32:47.694Z,101203.72
2023-05-03T06:35:15.762Z,101206.34
2023-05-03T06:37:43.848Z,101215.22
2023-05-03T06:40:11.652Z,101221.47
2023-05-03T06:42:39.147Z,101213.41
2023-05-03T06:45:15.925Z,101215.06
2023-05-03T06:47:43.448Z,101229.13
2023-05-03T06:50:11.247Z,101228.31
2023-05-03T06:52:38.817Z,101221.28
2023-05-03T06:55:07.159Z,101230.00
2023-05-03T06:57:35.858Z,101227.22
2023-05-03T07:00:07.328Z,101220.22
2023-05-03T07:02:35.230Z,101222.66
2023-05-03T07:05:03.180Z,101219.16
2023-05-03T07:07:30.981Z,101219.91
2023-05-03T07:09:58.421Z,101214.91
2023-05-03T07:12:28.245Z,101209.34
2023-05-03T07:14:56.078Z,101220.91
2023-05-03T07:17:24.511Z,101218.28
2023-05-03T07:19:52.946Z,101222.69
2023-05-03T07:22:26.631Z,101214.78
2023-05-03T07:24:54.935Z,101224.63
2023-05-03T07:27:22.762Z,101222.78
2023-05-03T07:29:50.458Z,101217.13
2023-05-03T07:32:17.980Z,101207.06
2023-05-03T07:34:45.703Z,101212.91
2023-05-03T07:37:13.045Z,101209.28
2023-05-03T07:39:42.146Z,101208.41
2023-05-03T07:42:10.103Z,101216.97
2023-05-03T07:44:37.451Z,101207.78
2023-05-03T07:47:04.861Z,101217.09
2023-05-03T07:49:35.720Z,101211.19
2023-05-03T07:52:03.254Z,101202.88
2023-05-03T07:54:30.599Z,101214.25
2023-05-03T07:56:57.977Z,101215.00
2023-05-03T07:59:25.397Z,101199.41
2023-05-03T08:01:52.782Z,101208.75
2023-05-03T08:04:20.352Z,101211.13
2023-05-03T08:06:48.058Z,101207.13
2023-05-03T08:09:15.783Z,101219.69
2023-05-03T08:11:44.397Z,101217.47
2023-05-03T08:14:12.261Z,101211.03
2023-05-03T08:16:40.081Z,101217.81
2023-05-03T08:19:08.142Z,101222.81
2023-05-03T08:21:35.684Z,101212.22
2023-05-03T08:24:06.041Z,101227.16
2023-05-03T08:26:33.448Z,101223.25
2023-05-03T08:29:03.442Z,101223.88
2023-05-03T08:31:31.416Z,101227.56
2023-05-03T08:33:58.978Z,101224.75
2023-05-03T08:36:26.451Z,101229.19
2023-05-03T08:38:53.821Z,101219.78
2023-05-03T08:41:30.740Z,101217.88
2023-05-03T08:43:59.870Z,101225.31
2023-05-03T08:46:28.738Z,101227.00
2023-05-03T08:48:57.248Z,101227.22
2023-05-03T08:51:25.219Z,101213.22
2023-05-03T08:53:52.654Z,101214.59
2023-05-03T08:56:33.072Z,101213.28
2023-05-03T08:59:08.551Z,101230.44
2023-05-03T09:01:40.533Z,101215.41
2023-05-03T09:04:08.968Z,101226.28
2023-05-03T09:06:37.435Z,101230.78
2023-05-03T09:09:07.556Z,101216.09
2023-05-03T09:11:37.324Z,101235.19
2023-05-03T09:14:23.074Z,101219.97
2023-05-03T09:16:50.519Z,101223.22
2023-05-03T09:19:17.882Z,101219.03
2023-05-03T09:21:49.521Z,101221.06
2023-05-03T09:24:21.919Z,101227.31
2023-05-03T09:26:51.158Z,101226.59
2023-05-03T09:29:34.229Z,101216.72
2023-05-03T09:32:08.778Z,101213.84
2023-05-03T09:34:37.149Z,101203.34
2023-05-03T09:37:04.750Z,101218.34
2023-05-03T09:39:32.568Z,101230.69
2023-05-03T09:42:10.601Z,101207.00
2023-05-03T09:44:48.830Z,101209.69
2023-05-03T09:47:16.562Z,101216.59
2023-05-03T09:49:44.666Z,101199.41
2023-05-03T09:52:12.228Z,101213.69
2023-05-03T09:54:39.876Z,101211.66
2023-05-03T09:57:08.406Z,101213.41
2023-05-03T09:59:37.806Z,101191.53
2023-05-03T10:02:07.778Z,101211.91
2023-05-03T10:05:23.570Z,101197.81
2023-05-03T10:07:52.842Z,101206.06
2023-05-03T10:10:21.451Z,101194.00
2023-05-03T10:12:49.551Z,101191.16
2023-05-03T10:15:19.700Z,101198.84
2023-05-03T10:17:52.982Z,101198.69
2023-05-03T10:20:23.851Z,101205.75
2023-05-03T10:23:06.627Z,101214.16
2023-05-03T10:25:36.147Z,101192.94
2023-05-03T10:28:05.972Z,101198.16
2023-05-03T10:30:35.373Z,101199.31
2023-05-03T10:33:11.577Z,101201.91
2023-05-03T10:35:48.995Z,101195.72
2023-05-03T10:38:20.074Z,101192.94
2023-05-03T10:40:47.695Z,101185.69
2023-05-03T10:43:42.131Z,101187.19
2023-05-03T10:46:30.844Z,101190.00
2023-05-03T10:49:18.700Z,101189.47
2023-05-03T10:51:46.515Z,101182.66
2023-05-03T10:54:14.040Z,101177.38
2023-05-03T10:56:48.358Z,101181.94
2023-05-03T10:59:15.953Z,101173.44
2023-05-03T11:01:46.702Z,101170.44
2023-05-03T11:04:23.321Z,101171.94
2023-05-03T11:06:52.303Z,101172.31
2023-05-03T11:09:19.905Z,101170.00
2023-05-03T11:11:47.199Z,101167.44
2023-05-03T11:14:14.618Z,101166.00
2023-05-03T11:16:48.167Z,101158.22
2023-05-03T11:19:16.170Z,101162.84
2023-05-03T11:21:45.281Z,101160.06
2023-05-03T11:24:13.613Z,101167.81
2023-05-03T11:26:41.225Z,101157.84
2023-05-03T11:29:13.232Z,101163.06
2023-05-03T11:31:43.264Z,101158.44
2023-05-03T11:34:12.298Z,101162.66
2023-05-03T11:36:41.899Z,101153.59
2023-05-03T11:39:09.638Z,101156.84
2023-05-03T11:41:37.205Z,101155.00
2023-05-03T11:44:16.123Z,101154.16
2023-05-03T11:46:46.939Z,101160.50
2023-05-03T11:49:18.880Z,101156.06
2023-05-03T11:51:49.378Z,101159.72
2023-05-03T11:54:24.996Z,101152.66
2023-05-03T11:56:57.585Z,101152.81
2023-05-03T11:59:38.943Z,101154.66
2023-05-03T12:02:08.182Z,101153.00
2023-05-03T12:04:41.650Z,101147.59
2023-05-03T12:07:12.045Z,101153.66
2023-05-03T12:09:41.991Z,101150.13
2023-05-03T12:12:20.769Z,101152.66
2023-05-03T12:14:59.750Z,101139.53
2023-05-03T12:17:39.263Z,101144.97
2023-05-03T12:22:58.106Z,101134.81
2023-05-03T12:25:28.619Z,101152.47
2023-05-03T12:30:36.013Z,101145.31
2023-05-03T12:33:04.773Z,101151.84
2023-05-03T12:35:34.146Z,101132.06
2023-05-03T12:38:04.480Z,101134.63
2023-05-03T12:40:34.350Z,101135.50
2023-05-03T12:43:03.410Z,101143.81
2023-05-03T12:45:34.414Z,101127.63
2023-05-03T12:48:03.292Z,101149.00
2023-05-03T12:50:31.994Z,101137.63
2023-05-03T12:53:02.691Z,101149.53
2023-05-03T12:55:35.474Z,101140.25
2023-05-03T12:58:36.854Z,101130.09
2023-05-03T13:03:32.385Z,101138.97
2023-05-03T13:06:12.616Z,101142.94
2023-05-03T13:08:48.324Z,101136.06
2023-05-03T13:11:19.199Z,101136.78
2023-05-03T13:13:47.058Z,101125.66
2023-05-03T13:16:14.684Z,101133.28
2023-05-03T13:18:43.051Z,101131.38
2023-05-03T13:21:31.580Z,101128.88
2023-05-03T13:23:58.988Z,101134.28
2023-05-03T13:26:26.380Z,101129.91
2023-05-03T13:28:53.716Z,101129.03
2023-05-03T13:31:21.069Z,101132.38
2023-05-03T13:33:49.226Z,101127.31
2023-05-03T13:36:16.612Z,101121.81
2023-05-03T13:38:43.930Z,101128.81
2023-05-03T13:41:12.422Z,101127.03
2023-05-03T13:43:42.056Z,101131.41
2023-05-03T13:46:09.635Z,101118.91
2023-05-03T13:48:37.026Z,101124.25
2023-05-03T13:51:14.078Z,101109.06
2023-05-03T13:53:41.628Z,101108.28
2023-05-03T13:56:09.040Z,101119.09
2023-05-03T13:58:37.263Z,101114.91
2023-05-03T14:01:04.582Z,101113.94
2023-05-03T14:03:33.987Z,101115.19
2023-05-03T14:06:08.591Z,101115.34
2023-05-03T14:08:36.018Z,101106.44
2023-05-03T14:11:06.152Z,101113.69
2023-05-03T14:13:43.638Z,101112.31
2023-05-03T14:16:35.561Z,101112.72
2023-05-03T14:19:10.744Z,101105.75
2023-05-03T14:21:38.656Z,101106.53
2023-05-03T14:24:06.870Z,101116.25
2023-05-03T14:26:34.447Z,101114.63
2023-05-03T14:29:02.090Z,101110.53
2023-05-03T14:31:30.458Z,101118.13
2023-05-03T14:33:59.334Z,101124.16
2023-05-03T14:36:34.866Z,101125.38
2023-05-03T14:39:04.237Z,101139.50
2023-05-03T14:41:36.881Z,101131.75
2023-05-03T14:44:04.363Z,101121.03
2023-05-03T14:46:31.803Z,101129.06
2023-05-03T14:48:59.817Z,101145.41
2023-05-03T14:51:27.967Z,101136.25
2023-05-03T14:53:55.380Z,101139.59
2023-05-03T14:56:22.842Z,101139.59
2023-05-03T14:58:50.464Z,101137.31
2023-05-03T15:01:19.812Z,101152.50
2023-05-03T15:03:47.493Z,101142.34
2023-05-03T15:06:15.458Z,101142.78
2023-05-03T15:08:43.021Z,101147.25
2023-05-03T15:11:10.524Z,101148.44
2023-05-03T15:13:37.989Z,101158.28
2023-05-03T15:16:05.688Z,101173.41
2023-05-03T15:18:33.063Z,101159.91
2023-05-03T15:21:00.642Z,101163.16
2023-05-03T15:23:28.339Z,101167.38
2023-05-03T15:25:55.733Z,101170.00
2023-05-03T15:28:23.121Z,101156.06
2023-05-03T15:30:50.930Z,101157.50
2023-05-03T15:33:18.475Z,101145.72
2023-05-03T15:35:46.381Z,101162.59
2023-05-03T15:38:13.756Z,101137.72
2023-05-03T15:40:41.260Z,101159.44
2023-05-03T15:43:08.786Z,101161.09
2023-05-03T15:45:36.128Z,101144.75
2023-05-03T15:48:04.702Z,101153.34
2023-05-03T15:50:32.065Z,101162.38
2023-05-03T15:52:59.342Z,101166.88
2023-05-03T15:55:26.955Z,101164.97
2023-05-03T15:57:57.227Z,101167.28
2023-05-03T16:00:25.665Z,101165.56
2023-05-03T16:02:53.197Z,101161.94
2023-05-03T16:05:20.838Z,101163.72
2023-05-03T16:07:55.176Z,101158.34
2023-05-03T16:10:24.903Z,101149.94
2023-05-03T16:12:52.714Z,101153.56
2023-05-03T16:15:20.114Z,101152.06
2023-05-03T16:17:48.346Z,101154.88
2023-05-03T16:20:15.856Z,101153.81
2023-05-03T16:22:43.565Z,101138.59
2023-05-03T16:25:11.441Z,101141.59
2023-05-03T16:27:42.732Z,101141.91
2023-05-03T16:30:10.569Z,101160.34
2023-05-03T16:32:38.002Z,101143.50
2023-05-03T16:35:05.713Z,101145.41
2023-05-03T16:37:36.093Z,101138.34
2023-05-03T16:40:13.076Z,101141.69
2023-05-03T16:42:42.373Z,101147.16
2023-05-03T16:45:10.909Z,101144.75
2023-05-03T16:47:38.420Z,101153.31
2023-05-03T16:50:09.692Z,101142.38
2023-05-03T16:52:43.727Z,101153.25
2023-05-03T16:55:14.508Z,101141.03
2023-05-03T16:57:42.268Z,101140.41
2023-05-03T17:00:11.220Z,101142.16
2023-05-03T17:02:39.814Z,101154.47
2023-05-03T17:05:08.318Z,101138.91
2023-05-03T17:07:35.828Z,101146.03
2023-05-03T17:10:04.300Z,101148.03
2023-05-03T17:12:31.839Z,101144.78
2023-05-03T17:14:59.261Z,101153.53
2023-05-03T17:17:26.634Z,101147.66
2023-05-03T17:19:54.005Z,101146.84
2023-05-03T17:22:21.516Z,101135.19
2023-05-03T17:24:48.946Z,101150.34
2023-05-03T17:27:16.320Z,101157.66
2023-05-03T17:29:44.292Z,101149.00
2023-05-03T17:32:11.636Z,101154.28
2023-05-03T17:34:39.253Z,101151.69
2023-05-03T17:37:06.670Z,101164.22
2023-05-03T17:39:34.152Z,101155.34
2023-05-03T17:42:01.656Z,101169.84
2023-05-03T17:44:29.055Z,101165.47
2023-05-03T17:46:56.832Z,101176.34
2023-05-03T17:49:27.325Z,101169.94
2023-05-03T17:51:54.831Z,101168.25
2023-05-03T17:54:22.204Z,101168.16
2023-05-03T17:56:49.752Z,101169.38
2023-05-03T17:59:17.968Z,101174.03
2023-05-03T18:01:47.316Z,101192.00
2023-05-03T18:04:15.171Z,101175.84
2023-05-03T18:06:42.528Z,101179.41
2023-05-03T18:09:10.140Z,101188.06
2023-05-03T18:11:37.528Z,101186.50
2023-05-03T18:14:04.852Z,101191.22
2023-05-03T18:16:32.777Z,101183.31
2023-05-03T18:19:00.935Z,101194.28
2023-05-03T18:21:28.686Z,101188.28
2023-05-03T18:23:56.567Z,101191.97
2023-05-03T18:26:25.428Z,101200.19
2023-05-03T18:28:53.721Z,101196.63
2023-05-03T18:31:21.492Z,101203.19
2023-05-03T18:33:49.220Z,101190.81
2023-05-03T18:36:17.129Z,101201.03
2023-05-03T18:38:46.857Z,101198.25
2023-05-03T18:41:15.902Z,101202.91
2023-05-03T18:43:46.262Z,101209.31
2023-05-03T18:46:18.730Z,101211.22
2023-05-03T18:48:47.793Z,101217.63
2023-05-03T18:51:16.392Z,101226.00
2023-05-03T18:53:43.937Z,101224.25
2023-05-03T18:56:11.485Z,101225.91
2023-05-03T18:58:39.786Z,101230.44
2023-05-03T19:01:07.484Z,101233.13
2023-05-03T19:03:35.394Z,101235.81
2023-05-03T19:06:09.415Z,101234.94
2023-05-03T19:08:37.012Z,101231.66
2023-05-03T19:11:13.573Z,101237.91
2023-05-03T19:13:46.247Z,101255.78
2023-05-03T19:16:15.537Z,101244.56
2023-05-03T19:18:44.430Z,101260.84
2023-05-03T19:21:12.536Z,101256.28
2023-05-03T19:23:40.010Z,101252.91
2023-05-03T19:26:07.465Z,101253.94
2023-05-03T19:28:35.520Z,101263.53
2023-05-03T19:31:06.165Z,101263.59
2023-05-03T19:33:34.001Z,101260.53
2023-05-03T19:36:07.460Z,101267.88
2023-05-03T19:38:38.536Z,101271.56
2023-05-03T19:41:13.331Z,101272.41
2023-05-03T19:43:42.142Z,101275.00
2023-05-03T19:46:09.824Z,101271.56
2023-05-03T19:48:38.073Z,101274.41
2023-05-03T19:51:05.898Z,101279.06
2023-05-03T19:53:33.827Z,101278.91
2023-05-03T19:56:07.044Z,101294.13
2023-05-03T19:58:34.472Z,101305.66
2023-05-03T20:01:02.635Z,101296.81
2023-05-03T20:03:30.188Z,101303.81
2023-05-03T20:06:00.504Z,101298.72
2023-05-03T20:09:00.944Z,101310.00
2023-05-03T20:11:28.298Z,101305.69
2023-05-03T20:13:55.909Z,101300.44
2023-05-03T20:16:27.057Z,101311.38
2023-05-03T20:18:54.497Z,101305.97
2023-05-03T20:21:21.892Z,101310.50
2023-05-03T20:23:50.382Z,101309.66
2023-05-03T20:26:19.173Z,101304.22
2023-05-03T20:28:46.556Z,101300.72
2023-05-03T20:31:14.110Z,101312.97
2023-05-03T20:33:41.561Z,101310.28
2023-05-03T20:36:09.678Z,101308.38
2023-05-03T20:38:38.033Z,101311.03
2023-05-03T20:41:06.085Z,101312.81
2023-05-03T20:43:33.612Z,101317.22
2023-05-03T20:46:00.919Z,101311.94
2023-05-03T20:48:29.306Z,101318.09
2023-05-03T20:50:59.693Z,101316.19
2023-05-03T20:53:27.457Z,101318.00
2023-05-03T20:56:01.697Z,101320.84
2023-05-03T20:58:29.258Z,101318.19
2023-05-03T21:00:57.850Z,101321.78
2023-05-03T21:03:25.951Z,101317.28
2023-05-03T21:05:53.582Z,101318.28
2023-05-03T21:08:21.278Z,101332.56
2023-05-03T21:10:48.732Z,101318.16
2023-05-03T21:13:17.775Z,101323.31
2023-05-03T21:15:45.335Z,101316.81
2023-05-03T21:18:12.761Z,101325.06
2023-05-03T21:20:40.212Z,101315.72
2023-05-03T21:23:07.596Z,101328.50
2023-05-03T21:25:35.003Z,101320.84
2023-05-03T21:28:02.368Z,101317.09
2023-05-03T21:30:29.855Z,101317.97
2023-05-03T21:32:57.329Z,101312.31
2023-05-03T21:35:24.795Z,101312.78
2023-05-03T21:37:52.199Z,101308.63
2023-05-03T21:40:21.293Z,101309.81
2023-05-03T21:42:54.047Z,101315.63
2023-05-03T21:45:21.600Z,101308.63
2023-05-03T21:47:49.041Z,101309.59
2023-05-03T21:50:16.668Z,101311.34
2023-05-03T21:52:44.036Z,101307.78
2023-05-03T21:55:12.242Z,101311.25
2023-05-03T21:57:39.686Z,101305.09
2023-05-03T22:00:07.943Z,101326.38
2023-05-03T22:02:36.029Z,101326.06
2023-05-03T22:05:03.555Z,101318.34
2023-05-03T22:07:30.932Z,101327.22
2023-05-03T22:09:58.621Z,101326.19
2023-05-03T22:12:26.307Z,101320.75
2023-05-03T22:14:54.241Z,101320.75
2023-05-03T22:17:21.716Z,101320.19
2023-05-03T22:19:49.162Z,101322.84
2023-05-03T22:22:16.474Z,101323.91
2023-05-03T22:24:43.845Z,101321.47
2023-05-03T22:27:11.254Z,101315.97
2023-05-03T22:29:38.618Z,101322.16
2023-05-03T22:32:07.202Z,101331.91
2023-05-03T22:34:34.703Z,101323.53
2023-05-03T22:37:02.087Z,101326.97
2023-05-03T22:39:29.562Z,101328.28
2023-05-03T22:41:56.889Z,101329.28
2023-05-03T22:44:24.234Z,101327.41
2023-05-03T22:46:51.581Z,101332.03
2023-05-03T22:49:18.962Z,101339.41
2023-05-03T22:51:46.704Z,101326.91
2023-05-03T22:54:14.056Z,101327.19
2023-05-03T22:56:41.496Z,101330.75
2023-05-03T22:59:09.299Z,101327.97
2023-05-03T23:01:37.544Z,101332.03
2023-05-03T23:04:05.152Z,101338.53
2023-05-03T23:06:32.626Z,101330.75
2023-05-03T23:09:01.098Z,101342.50
2023-05-03T23:11:28.434Z,101334.59
2023-05-03T23:13:55.835Z,101340.09
2023-05-03T23:16:23.322Z,101347.88
2023-05-03T23:18:50.748Z,101337.50
2023-05-03T23:21:18.585Z,101326.81
2023-05-03T23:23:47.007Z,101337.63
2023-05-03T23:26:14.521Z,101334.00
2023-05-03T23:28:42.246Z,101342.06
2023-05-03T23:31:10.083Z,101343.16
2023-05-03T23:33:37.714Z,101341.69
2023-05-03T23:36:05.327Z,101344.16
2023-05-03T23:38:32.902Z,101344.09
2023-05-03T23:41:00.305Z,101343.22
2023-05-03T23:43:27.671Z,101329.94
2023-05-03T23:45:55.036Z,101329.06
2023-05-03T23:48:22.410Z,101334.56
2023-05-03T23:50:49.760Z,101329.38
2023-05-03T23:53:17.151Z,101329.59
2023-05-03T23:55:44.610Z,101320.94
2023-05-03T23:58:12.008Z,101319.13
